createdAt,value
2019-02-09T00:00:08.971Z,10.2
2019-02-09T00:06:03.967Z,6.09
2019-02-09T00:11:58.976Z,8.61
2019-02-09T00:17:53.985Z,10.28
2019-02-09T00:23:48.967Z,13.01
2019-02-09T00:29:46.235Z,10.27
2019-02-09T00:35:38.959Z,8.22
2019-02-09T00:41:33.986Z,7.97
2019-02-09T00:47:28.963Z,6.84
2019-02-09T00:53:23.975Z,6.55
2019-02-09T00:59:19.002Z,7.75
2019-02-09T01:05:13.975Z,7.18
2019-02-09T01:11:08.980Z,14.03
2019-02-09T01:17:03.969Z,8.28
2019-02-09T01:22:58.976Z,16.43
2019-02-09T01:28:54.025Z,14.99
2019-02-09T01:34:48.992Z,7.33
2019-02-09T01:40:44.005Z,7.52
2019-02-09T01:46:39.035Z,9.77
2019-02-09T01:52:34.009Z,7.74
2019-02-09T01:58:29.005Z,7.27
2019-02-09T02:04:23.984Z,7.56
2019-02-09T02:10:19.033Z,6.77
2019-02-09T02:16:14.028Z,6.56
2019-02-09T02:22:09.001Z,7.12
2019-02-09T02:28:04.004Z,6.5
2019-02-09T02:33:59.011Z,5.25
2019-02-09T02:39:54.025Z,5.18
2019-02-09T02:45:48.980Z,5.5
2019-02-09T02:51:44.026Z,6.37
2019-02-09T02:57:38.996Z,7.31
2019-02-09T03:03:34.004Z,6.48
2019-02-09T03:09:29.044Z,5.26
2019-02-09T03:15:24.063Z,6.83
2019-02-09T03:21:19.022Z,6.24
2019-02-09T03:27:14.012Z,6.8
2019-02-09T03:33:09.013Z,6.59
2019-02-09T03:39:03.996Z,10.1
2019-02-09T03:44:59.027Z,7.41
2019-02-09T03:50:54.023Z,6.66
2019-02-09T03:56:49.068Z,6.03
2019-02-09T04:02:44.016Z,5.83
2019-02-09T04:08:39.013Z,6.34
2019-02-09T04:14:34.002Z,5.05
2019-02-09T04:20:29.021Z,6.03
2019-02-09T04:26:24.054Z,6.6
2019-02-09T04:32:19.034Z,5.52
2019-02-09T04:38:14.049Z,5.59
2019-02-09T04:44:09.072Z,5.89
2019-02-09T04:50:04.026Z,5.88
2019-02-09T04:55:59.025Z,6.02
2019-02-09T05:01:54.031Z,7.12
2019-02-09T05:07:49.057Z,6.45
2019-02-09T05:13:44.024Z,6.46
2019-02-09T05:19:39.038Z,7.34
2019-02-09T05:25:34.082Z,5.89
2019-02-09T05:31:29.040Z,6.39
2019-02-09T05:37:24.046Z,5.83
2019-02-09T05:43:19.049Z,5.29
2019-02-09T05:49:14.032Z,5.96
2019-02-09T05:55:09.076Z,8.41
2019-02-09T06:01:04.044Z,15.78
2019-02-09T06:06:59.081Z,10.69
2019-02-09T06:12:54.039Z,8.48
2019-02-09T06:18:49.102Z,10.43
2019-02-09T06:24:44.131Z,7.71
2019-02-09T06:30:39.079Z,8.85
2019-02-09T06:36:34.077Z,8.71
2019-02-09T06:42:29.041Z,11.28
2019-02-09T06:48:24.078Z,17.78
2019-02-09T06:54:19.070Z,22.33
2019-02-09T07:00:14.061Z,28.67
2019-02-09T07:06:09.072Z,21.04
2019-02-09T07:12:04.075Z,12.18
2019-02-09T07:17:59.070Z,11.53
2019-02-09T07:23:54.078Z,10.5
2019-02-09T07:29:49.067Z,13.35
2019-02-09T07:35:44.053Z,13.82
2019-02-09T07:41:39.053Z,12.09
2019-02-09T07:47:34.099Z,11.03
2019-02-09T07:53:29.100Z,12.97
2019-02-09T07:59:24.071Z,12.13
2019-02-09T08:05:19.070Z,10.44
2019-02-09T08:11:14.060Z,11.99
2019-02-09T08:17:09.082Z,9.47
2019-02-09T08:23:04.062Z,11.11
2019-02-09T08:28:59.078Z,10.13
2019-02-09T08:34:54.089Z,11.17
2019-02-09T08:40:49.104Z,11.61
2019-02-09T08:46:44.099Z,11.63
2019-02-09T08:52:39.066Z,11.22
2019-02-09T08:58:34.064Z,10.46
2019-02-09T09:04:29.092Z,12.43
2019-02-09T09:10:24.072Z,11.68
2019-02-09T09:16:19.140Z,13.39
2019-02-09T09:22:14.074Z,12.26
2019-02-09T09:28:09.104Z,14
2019-02-09T09:34:04.098Z,13.13
2019-02-09T09:39:59.095Z,13.34
2019-02-09T09:45:54.092Z,13.19
2019-02-09T09:51:49.125Z,13.03
2019-02-09T09:57:44.087Z,13.4
2019-02-09T10:03:39.079Z,13.57
2019-02-09T10:09:34.114Z,13.66
2019-02-09T10:15:29.117Z,19.27
2019-02-09T10:21:24.124Z,21.52
2019-02-09T10:27:19.107Z,20.51
2019-02-09T10:33:14.116Z,16.33
2019-02-09T10:39:09.161Z,15.63
2019-02-09T10:45:04.126Z,16.26
2019-02-09T10:50:59.149Z,14.34
2019-02-09T10:56:54.121Z,15.74
2019-02-09T11:02:52.121Z,16.41
2019-02-09T11:08:44.147Z,16.06
2019-02-09T11:14:39.132Z,17.19
2019-02-09T11:20:34.117Z,17.11
2019-02-09T11:26:29.122Z,20.43
2019-02-09T11:32:24.147Z,19.01
2019-02-09T11:38:19.118Z,18.37
2019-02-09T11:44:14.183Z,20.52
2019-02-09T11:50:09.150Z,21.07
2019-02-09T11:56:04.148Z,17.31
2019-02-09T12:01:59.131Z,17.2
2019-02-09T12:07:54.143Z,16.55
2019-02-09T12:13:55.122Z,14.94
2019-02-09T12:19:44.191Z,15.09
2019-02-09T12:25:39.135Z,16.23
2019-02-09T12:31:34.130Z,15.59
2019-02-09T12:37:29.158Z,17.32
2019-02-09T12:43:24.130Z,17.91
2019-02-09T12:49:19.159Z,18.89
2019-02-09T12:55:14.162Z,20.7
2019-02-09T13:01:09.121Z,17.47
2019-02-09T13:07:04.178Z,18.13
2019-02-09T13:12:59.209Z,16.35
2019-02-09T13:18:54.183Z,14.93
2019-02-09T13:24:49.130Z,14.8
2019-02-09T13:30:44.144Z,17.99
2019-02-09T13:36:39.180Z,17.02
2019-02-09T13:42:34.157Z,17.07
2019-02-09T13:48:29.158Z,17.91
2019-02-09T13:54:24.149Z,18.51
2019-02-09T14:00:19.142Z,19.09
2019-02-09T14:06:14.162Z,20.07
2019-02-09T14:12:09.199Z,21.54
2019-02-09T14:18:04.148Z,19.07
2019-02-09T14:23:59.164Z,20.83
2019-02-09T14:29:54.185Z,21.48
2019-02-09T14:35:49.169Z,22.03
2019-02-09T14:41:44.150Z,22.55
2019-02-09T14:47:39.166Z,19.99
2019-02-09T14:53:34.146Z,19.17
2019-02-09T14:59:29.170Z,23.16
2019-02-09T15:05:24.161Z,22.28
2019-02-09T15:11:19.153Z,23.82
2019-02-09T15:17:14.244Z,23.06
2019-02-09T15:23:09.148Z,22.32
2019-02-09T15:29:04.214Z,23.61
2019-02-09T15:34:59.184Z,25.58
2019-02-09T15:40:54.182Z,26.44
2019-02-09T15:46:49.167Z,60.06
2019-02-09T15:52:44.176Z,43.16
2019-02-09T15:58:39.150Z,33.01
2019-02-09T16:04:34.149Z,30.01
2019-02-09T16:10:29.201Z,32.3
2019-02-09T16:16:24.194Z,30.17
2019-02-09T16:22:19.138Z,31.99
2019-02-09T16:28:14.153Z,34.57
2019-02-09T16:34:09.156Z,34.82
2019-02-09T16:40:04.194Z,36.41
2019-02-09T16:45:59.186Z,35.45
2019-02-09T16:51:54.180Z,45.95
2019-02-09T16:57:49.168Z,42.39
2019-02-09T17:03:44.162Z,36.06
2019-02-09T17:09:39.189Z,37.78
2019-02-09T17:15:34.188Z,37.6
2019-02-09T17:21:29.211Z,39.45
2019-02-09T17:27:24.214Z,44.18
2019-02-09T17:33:19.170Z,48.06
2019-02-09T17:39:14.173Z,46.19
2019-02-09T17:45:09.160Z,48.68
2019-02-09T17:51:04.193Z,51.84
2019-02-09T17:56:59.211Z,48.27
2019-02-09T18:02:54.226Z,53.02
2019-02-09T18:08:49.182Z,49.25
2019-02-09T18:14:45.639Z,48.85
2019-02-09T18:20:39.159Z,49.28
2019-02-09T18:26:34.189Z,42.94
2019-02-09T18:32:29.180Z,42.97
2019-02-09T18:38:24.172Z,42.86
2019-02-09T18:44:19.183Z,42.78
2019-02-09T18:50:14.256Z,40.65
2019-02-09T18:56:09.162Z,43.56
2019-02-09T19:02:04.174Z,43.6
2019-02-09T19:07:59.237Z,44.84
2019-02-09T19:13:54.175Z,39.33
2019-02-09T19:19:49.244Z,42.07
2019-02-09T19:25:44.201Z,44.17
2019-02-09T19:31:39.230Z,48.26
2019-02-09T19:37:34.237Z,50.2
2019-02-09T19:43:29.198Z,59.45
2019-02-09T19:49:24.215Z,58.03
2019-02-09T19:55:19.196Z,55.25
2019-02-09T20:01:14.218Z,53.18
2019-02-09T20:07:09.230Z,68.74
2019-02-09T20:13:04.261Z,61.59
2019-02-09T20:18:59.205Z,63.15
2019-02-09T20:24:54.273Z,57.77
2019-02-09T20:30:49.198Z,62.69
2019-02-09T20:36:44.214Z,58.44
2019-02-09T20:42:39.226Z,62.51
2019-02-09T20:48:34.572Z,55.69
2019-02-09T20:54:29.232Z,56.43
2019-02-09T21:00:24.221Z,55.04
2019-02-09T21:06:19.223Z,55.91
2019-02-09T21:12:14.251Z,53.7
2019-02-09T21:18:09.217Z,51.56
2019-02-09T21:24:04.233Z,50.78
2019-02-09T21:29:59.253Z,55.74
2019-02-09T21:35:54.241Z,59.89
2019-02-09T21:41:49.214Z,56.11
2019-02-09T21:47:44.229Z,58.05
2019-02-09T21:53:39.226Z,58.25
2019-02-09T21:59:34.288Z,58.17
2019-02-09T22:05:29.218Z,56.11
2019-02-09T22:11:24.328Z,58.89
2019-02-09T22:17:19.252Z,57.87
2019-02-09T22:23:14.234Z,55.78
2019-02-09T22:29:09.241Z,55.58
2019-02-09T22:35:04.291Z,54.93
2019-02-09T22:40:59.257Z,57.04
2019-02-09T22:46:54.265Z,53.75
2019-02-09T22:52:49.290Z,55.52
2019-02-09T22:58:44.279Z,51.94
2019-02-09T23:04:39.246Z,52.56
2019-02-09T23:10:34.228Z,52.65
2019-02-09T23:16:29.236Z,48.13
2019-02-09T23:22:24.280Z,45.25
2019-02-09T23:28:19.241Z,48.05
2019-02-09T23:34:14.240Z,44.92
2019-02-09T23:40:09.246Z,48.88
2019-02-09T23:46:04.274Z,46.57
2019-02-09T23:51:59.232Z,44.59
2019-02-09T23:57:54.249Z,48.45
